Terminal Aerodrome Forecast
Issued by NWS

Home | Current Version | Previous Version | Text Only | Print | Product List | Glossary On
Versions: 1 2 3 4 5 6 7 8 9 10 11 12 13 14 15 16 17 18 19
000
FTAK31 PAFA 231446 AAB
TAFAFA
TAF AMD
PAFA 231446Z 2315/2418 VRB03KT P6SM VCSH SCT005 BKN060 OVC120
     FM231900 12004KT P6SM SCT060 BKN100
     FM240200 05004KT P6SM VCSH SCT030 BKN060 BKN100
     FM240800 VRB03KT P6SM -RA BKN030 OVC060
     FM241600 VRB03KT P6SM BCFG FEW005 SCT030 BKN060=

USA.gov is the U.S. government's official web portal to all federal, state and local government web resources and services.